• Join FlightAware (Why Join?)
  • Login
  • US Flag 
02:20AM EDT


 

Airport Tracker/Info


-or-


 

Live Flight TrackerFlight Track Log ✈ RPA3143 ✈ 09-Jul-2013 ✈ KPIT - KDCA

Flight Track Log - Related Links

Times and Time Zones

All times are in EDT time to prevent confusion due to time zone crossing. See the RPA3143 flight status page for this flight to view local times or setup timezone preferences in your user account.

Time Position Orientation Groundspeed Altitude Reporting Facility
EDT Latitude Longitude Course Direction KTS MPH feet Rate Location/Type
06:05AM 40.3428 -79.9295 164° South  Level Estimated
06:05AM 40.4294 -80.3022 166° South 285 328 5,600  Level Cleveland Center
06:06AM 40.2616 -79.9849 208° Southwest  Level FlightAware Approximate
06:06AM 40.3606 -80.2697 160° South 299 344 8,400  Level Cleveland Center
06:07AM 40.2146 -79.8819 162° South  Level Estimated
06:07AM 40.2750 -80.2239 158° South 309 356 10,700  Level Cleveland Center
06:08AM 40.1674 -79.7792 166° South  Level Estimated
06:08AM 40.1936 -80.1836 159° South 321 369 12,700  Level Cleveland Center
06:09AM 40.1202 -79.6765 161° South  Level Estimated
06:09AM 40.0997 -80.1353 159° South 343 395 14,900  Level Cleveland Center
06:10AM 40.0729 -79.5740 166° South  Level Estimated
06:10AM 40.0056 -80.0872 159° South 358 412 16,900  Level Cleveland Center
06:11AM 39.9178 -80.0067 145° Southeast 369 425 18,200 1,200 Climbing Cleveland Center
06:12AM 39.8358 -79.9100 138° Southeast 384 442 19,400 1,620 Climbing Cleveland Center
06:14AM 39.6619 -79.7106 139° Southeast 406 467 22,900 1,200 Climbing Washington Center
06:15AM 39.5758 -79.6086 138° Southeast 417 480 23,000  Climbing Washington Center
06:16AM 39.4875 -79.5069 138° Southeast 422 486 23,000  Level Washington Center
06:17AM 39.3992 -79.4053 138° Southeast 422 486 23,000  Level Washington Center
06:18AM 39.3106 -79.3014 138° Southeast 427 491 23,000  Level Washington Center
06:19AM 39.2450 -79.1964 129° Southeast 434 499 23,000  Level Washington Center
06:20AM 39.2308 -79.0456 97° East 403 464 23,000  Level Washington Center
06:21AM 39.2161 -78.9003 97° East 401 461 23,000 -60 Level Washington Center
06:22AM 39.2033 -78.7550 96° East 401 461 22,900 -1,140 Descending Washington Center
06:23AM 39.1844 -78.5989 99° East 406 467 20,800 -2,340 Descending Washington Center
06:24AM 39.1750 -78.4725 95° East 406 467 18,300 -1,920 Descending Washington Center
06:25AM 39.1553 -78.3325 100° East 400 460 17,000 -660 Descending Washington Center
06:26AM 39.1228 -78.2028 108° East 388 447 17,000 -240 Level Washington Center
06:27AM 39.0881 -78.0706 109° East 388 447 16,600 -1,260 Descending Washington Center
06:28AM 39.0572 -77.9414 107° East 388 447 14,500 -2,040 Descending Washington Center
06:29AM 39.0261 -77.8253 109° East 356 410 12,700 -1,800 Descending Washington Center
06:30AM 38.9950 -77.7042 108° East 323 372 10,900 -1,680 Descending Washington Center
06:31AM 38.9714 -77.6156 109° East 311 358 9,400 -1,320 Descending Washington Center
06:32AM 38.9500 -77.4667 100° East 281 323 7,900 -1,320 Descending Potomac TRACON
06:33AM 38.9667 -77.3833 76° East 275 316 6,500 -1,320 Descending Potomac TRACON
06:34AM 39.0167 -77.3167 46° Northeast 252 290 5,500 -840 Descending Potomac TRACON
06:35AM 39.0500 -77.2667 49° Northeast 227 261 5,000 -300 Descending Potomac TRACON
06:36AM 39.0500 -77.2000 90° East 216 249 5,000 -600 Level Potomac TRACON
06:37AM 39.0000 -77.1500 142° Southeast 207 238 3,900 -1,320 Descending Potomac TRACON
06:38AM 38.9500 -77.1333 165° South 210 242 2,500 -1,440 Descending Potomac TRACON